Time;durP1;ratioP1;P1;durP2;ratioP2;P2;SDS_P1;SDS_P2;PMS_P1;PMS_P2;Temp;Humidity;BMP_temperature;BMP_pressure;BME280_temperature;BME280_humidity;BME280_pressure;Samples;Min_cycle;Max_cycle;Signal;HPM_P1;HPM_P2
2022/04/26 03:36:10;;;;;;;786.30;702.03;;;8.60;99.90;;;;;;4978042;28;20458;-80
2022/04/26 03:38:36;;;;;;;823.60;738.93;;;8.80;99.90;;;;;;4977300;28;20510;-82
2022/04/26 03:41:04;;;;;;;801.00;715.40;;;8.70;99.90;;;;;;4977448;28;20486;-81
2022/04/26 03:43:30;;;;;;;835.37;738.53;;;8.60;99.90;;;;;;4977329;28;20461;-81
2022/04/26 03:45:58;;;;;;;803.77;720.03;;;8.60;99.90;;;;;;4978071;28;20475;-81
2022/04/26 03:48:26;;;;;;;822.07;731.60;;;8.60;99.90;;;;;;4976214;28;20455;-81
2022/04/26 03:50:52;;;;;;;856.43;764.57;;;8.60;99.90;;;;;;4976442;28;20481;-81
2022/04/26 03:53:19;;;;;;;868.23;756.03;;;8.60;99.90;;;;;;4975274;28;20797;-80
2022/04/26 03:55:46;;;;;;;869.40;776.73;;;8.60;99.90;;;;;;4975558;28;20491;-80
2022/04/26 03:58:13;;;;;;;914.07;816.20;;;8.40;99.90;;;;;;4975776;28;20845;-80
2022/04/26 04:00:40;;;;;;;883.77;787.27;;;8.40;99.90;;;;;;4977433;28;20466;-82
2022/04/26 04:03:06;;;;;;;823.50;734.67;;;8.60;99.90;;;;;;4977730;28;20453;-81
2022/04/26 04:05:35;;;;;;;838.33;756.77;;;8.50;99.90;;;;;;4977503;28;20478;-81
2022/04/26 04:08:02;;;;;;;851.57;769.87;;;8.50;99.90;;;;;;4976821;28;20505;-80
2022/04/26 04:10:29;;;;;;;789.70;711.00;;;8.40;99.90;;;;;;4976806;28;20505;-81
2022/04/26 04:12:56;;;;;;;793.93;718.27;;;8.40;99.90;;;;;;4977770;28;20854;-82
2022/04/26 04:15:22;;;;;;;777.50;705.43;;;8.30;99.90;;;;;;4977572;28;20474;-82
2022/04/26 04:17:53;;;;;;;793.73;716.43;;;8.40;99.90;;;;;;4978419;28;20455;-81
2022/04/26 04:20:21;;;;;;;810.30;730.50;;;8.30;99.90;;;;;;4977646;28;20483;-81
2022/04/26 04:22:49;;;;;;;773.73;702.40;;;8.30;99.90;;;;;;4975856;28;20510;-81
2022/04/26 04:25:16;;;;;;;758.80;692.30;;;8.30;99.90;;;;;;4980617;28;20478;-81
2022/04/26 04:27:43;;;;;;;745.47;679.97;;;8.20;99.90;;;;;;4979759;28;20454;-81
2022/04/26 04:30:11;;;;;;;768.70;700.83;;;8.10;99.90;;;;;;4978870;28;20466;-80
2022/04/26 04:32:37;;;;;;;784.00;714.40;;;8.20;99.90;;;;;;4980863;28;20986;-81
2022/04/26 04:35:06;;;;;;;799.50;726.30;;;8.20;99.90;;;;;;4978822;28;20500;-80
2022/04/26 04:37:33;;;;;;;756.10;693.57;;;8.10;99.90;;;;;;4978800;28;20531;-80
2022/04/26 04:40:01;;;;;;;795.83;723.43;;;8.10;99.90;;;;;;4978762;28;20820;-80
2022/04/26 04:42:28;;;;;;;758.77;692.93;;;8.10;99.90;;;;;;4979261;28;20489;-81
2022/04/26 04:44:55;;;;;;;750.93;686.07;;;8.10;99.90;;;;;;4982192;28;20479;-82
2022/04/26 04:47:22;;;;;;;751.03;687.33;;;8.10;99.90;;;;;;4981963;28;20459;-82
2022/04/26 04:49:48;;;;;;;842.50;773.37;;;8.10;99.90;;;;;;4979720;28;20459;-82
2022/04/26 04:52:15;;;;;;;821.77;748.40;;;8.10;99.90;;;;;;4980823;28;20461;-82
2022/04/26 04:54:42;;;;;;;804.63;729.03;;;8.10;99.90;;;;;;4981479;28;20490;-82
2022/04/26 04:57:10;;;;;;;821.43;741.97;;;8.10;99.90;;;;;;4979412;28;20462;-81
2022/04/26 04:59:37;;;;;;;845.37;761.17;;;8.30;99.90;;;;;;4980178;28;20469;-82
2022/04/26 05:02:04;;;;;;;798.77;724.93;;;8.10;99.90;;;;;;4980241;28;20479;-80
2022/04/26 05:04:30;;;;;;;800.27;726.60;;;8.10;99.90;;;;;;4978376;28;20478;-81
2022/04/26 05:06:57;;;;;;;782.93;712.60;;;8.20;99.90;;;;;;4980186;28;20965;-80
2022/04/26 05:09:24;;;;;;;762.27;694.27;;;8.10;99.90;;;;;;4979300;28;20481;-82
2022/04/26 05:11:51;;;;;;;750.00;685.63;;;8.10;99.90;;;;;;4978336;28;20447;-80
2022/04/26 05:14:19;;;;;;;741.40;679.17;;;8.00;99.90;;;;;;4979923;28;20459;-81
2022/04/26 05:16:45;;;;;;;732.73;671.97;;;8.00;99.90;;;;;;4979012;28;20475;-81
2022/04/26 05:19:12;;;;;;;751.80;689.13;;;7.80;99.90;;;;;;4977351;28;20982;-81
2022/04/26 05:21:39;;;;;;;736.57;676.57;;;7.70;99.90;;;;;;4979202;28;20994;-81
2022/04/26 05:26:50;;;;;;;755.67;692.37;;;7.60;99.90;;;;;;4978854;28;20466;-80
2022/04/26 05:29:19;;;;;;;765.57;699.20;;;7.70;99.90;;;;;;4979024;28;20466;-80
2022/04/26 05:31:45;;;;;;;760.27;694.27;;;7.60;99.90;;;;;;4977112;28;20462;-80
2022/04/26 05:34:12;;;;;;;736.67;676.20;;;7.60;99.90;;;;;;4975908;28;20458;-81
2022/04/26 05:36:39;;;;;;;731.37;671.47;;;7.50;99.90;;;;;;4976384;28;20466;-80
2022/04/26 05:39:05;;;;;;;729.30;668.40;;;7.50;99.90;;;;;;4974332;28;20464;-79
2022/04/26 05:41:32;;;;;;;714.90;656.00;;;7.40;99.90;;;;;;4976826;28;20483;-79
2022/04/26 05:43:59;;;;;;;721.97;662.90;;;7.30;99.90;;;;;;4975649;28;20466;-80
2022/04/26 05:46:27;;;;;;;707.80;650.93;;;7.30;99.90;;;;;;4974669;28;20470;-80
2022/04/26 05:48:53;;;;;;;711.53;652.33;;;7.40;99.90;;;;;;4976736;28;20458;-79
2022/04/26 05:51:22;;;;;;;716.47;659.97;;;7.30;99.90;;;;;;4976472;28;20973;-80
2022/04/26 05:53:49;;;;;;;714.17;658.63;;;7.30;99.90;;;;;;4972064;28;20458;-79
2022/04/26 05:56:16;;;;;;;718.97;663.23;;;7.20;99.90;;;;;;4975194;28;21015;-79
2022/04/26 05:58:43;;;;;;;717.00;663.10;;;7.20;99.90;;;;;;4975128;28;20469;-80
2022/04/26 06:01:09;;;;;;;716.20;662.03;;;7.10;99.90;;;;;;4973727;28;20454;-79
2022/04/26 06:03:38;;;;;;;719.93;665.33;;;7.20;99.90;;;;;;4976616;28;20482;-80
2022/04/26 06:06:04;;;;;;;734.83;676.70;;;7.30;99.90;;;;;;4975046;28;20889;-80
2022/04/26 06:08:32;;;;;;;731.10;673.30;;;7.20;99.90;;;;;;4972390;28;20455;-79
2022/04/26 06:10:58;;;;;;;728.43;669.53;;;7.20;99.90;;;;;;4974548;28;20465;-79
2022/04/26 06:13:25;;;;;;;729.40;671.00;;;7.30;99.90;;;;;;4973919;28;20447;-80
2022/04/26 06:15:52;;;;;;;715.90;659.90;;;7.30;99.90;;;;;;4972514;28;20486;-79
2022/04/26 06:18:18;;;;;;;733.43;673.97;;;7.30;99.90;;;;;;4973030;28;20971;-80
2022/04/26 06:20:46;;;;;;;717.50;663.17;;;7.30;99.90;;;;;;4973576;28;20466;-80
2022/04/26 06:23:13;;;;;;;718.00;663.53;;;7.30;99.90;;;;;;4973445;28;20486;-80
2022/04/26 06:25:40;;;;;;;716.40;659.00;;;7.30;99.90;;;;;;4974852;28;20479;-80
2022/04/26 06:28:09;;;;;;;716.30;660.57;;;7.40;99.90;;;;;;4975604;28;20459;-81
2022/04/26 06:30:38;;;;;;;740.67;680.43;;;7.30;99.90;;;;;;4993139;28;20533;-80
2022/04/26 06:33:05;;;;;;;740.37;679.30;;;7.50;99.90;;;;;;4993587;28;20885;-80
2022/04/26 06:35:32;;;;;;;747.13;684.50;;;7.50;99.90;;;;;;4993583;28;20478;-80
2022/04/26 06:38:00;;;;;;;728.53;671.90;;;7.50;99.90;;;;;;4994597;28;20458;-80
2022/04/26 06:40:26;;;;;;;747.93;689.37;;;7.50;99.90;;;;;;4992300;28;20447;-80
2022/04/26 06:42:53;;;;;;;756.10;693.20;;;7.60;99.90;;;;;;4992597;28;20489;-80
2022/04/26 06:45:20;;;;;;;764.83;703.10;;;7.60;99.90;;;;;;4990945;28;20995;-80
2022/04/26 06:47:49;;;;;;;752.63;692.00;;;7.50;99.90;;;;;;4990073;28;20450;-80
2022/04/26 06:50:16;;;;;;;742.23;683.20;;;7.60;99.90;;;;;;4991306;28;20458;-81
2022/04/26 06:52:43;;;;;;;726.30;669.73;;;7.60;99.90;;;;;;4993146;28;20462;-80
2022/04/26 06:55:11;;;;;;;718.67;663.40;;;7.70;99.90;;;;;;4991654;28;20493;-80
2022/04/26 06:57:38;;;;;;;720.90;663.90;;;7.70;99.90;;;;;;4994278;28;20454;-81
2022/04/26 07:00:06;;;;;;;732.77;675.17;;;7.70;99.90;;;;;;4994259;28;21029;-80
2022/04/26 07:02:33;;;;;;;730.87;674.43;;;7.80;99.90;;;;;;4992208;28;20481;-80
2022/04/26 07:05:00;;;;;;;741.67;687.27;;;7.90;99.90;;;;;;4993726;28;20482;-81
2022/04/26 07:07:27;;;;;;;721.57;668.03;;;7.80;99.90;;;;;;4994438;28;20454;-80
2022/04/26 07:09:53;;;;;;;736.20;679.87;;;7.90;99.90;;;;;;4993284;28;20461;-80
2022/04/26 07:12:21;;;;;;;750.80;688.60;;;8.10;99.90;;;;;;4994618;28;20458;-80
2022/04/26 07:14:48;;;;;;;726.57;671.57;;;8.30;99.90;;;;;;4993888;28;20474;-80
2022/04/26 07:17:16;;;;;;;733.33;679.00;;;8.40;99.90;;;;;;4993756;28;20461;-79
2022/04/26 07:19:42;;;;;;;704.13;653.63;;;8.40;99.90;;;;;;4992757;28;20524;-80
2022/04/26 07:22:09;;;;;;;702.77;651.63;;;8.40;99.90;;;;;;4993638;28;20486;-79
2022/04/26 07:24:37;;;;;;;693.63;647.70;;;8.40;99.90;;;;;;4993783;28;20480;-79
2022/04/26 07:27:04;;;;;;;689.30;643.03;;;8.40;99.90;;;;;;4993440;28;20465;-80
2022/04/26 07:29:32;;;;;;;706.33;659.70;;;8.30;99.90;;;;;;4992456;28;20469;-80
2022/04/26 07:31:59;;;;;;;685.53;638.17;;;8.30;99.90;;;;;;4994548;28;20552;-80
2022/04/26 07:34:25;;;;;;;689.87;645.50;;;8.30;99.90;;;;;;4993047;28;20983;-80
2022/04/26 07:36:53;;;;;;;698.90;649.10;;;8.20;99.90;;;;;;4994338;28;20454;-79
2022/04/26 07:39:20;;;;;;;692.80;645.17;;;8.20;99.90;;;;;;4994238;28;20457;-80
2022/04/26 07:41:48;;;;;;;687.57;642.63;;;8.30;99.90;;;;;;4994583;28;20943;-79
2022/04/26 07:44:15;;;;;;;679.97;636.17;;;8.30;99.90;;;;;;4993466;28;20454;-79
2022/04/26 07:46:45;;;;;;;701.23;652.57;;;8.20;99.90;;;;;;4994717;28;20458;-79
2022/04/26 07:49:13;;;;;;;710.47;662.60;;;8.30;99.90;;;;;;4992890;28;20561;-80
2022/04/26 07:51:40;;;;;;;686.73;643.73;;;8.30;99.90;;;;;;4994226;28;20454;-79
2022/04/26 07:54:07;;;;;;;714.40;664.33;;;8.40;99.90;;;;;;4992156;28;20461;-79
2022/04/26 07:56:34;;;;;;;722.40;675.30;;;8.40;99.90;;;;;;4992885;28;20965;-79
2022/04/26 07:59:03;;;;;;;679.33;640.03;;;8.30;99.90;;;;;;4993790;28;20468;-80
2022/04/26 08:01:31;;;;;;;706.43;662.67;;;8.40;99.90;;;;;;4996281;28;20955;-79
2022/04/26 08:03:59;;;;;;;690.80;649.23;;;8.40;99.90;;;;;;4996977;28;20482;-79
2022/04/26 08:06:26;;;;;;;686.50;643.53;;;8.40;99.90;;;;;;4995183;28;20454;-80
2022/04/26 08:08:54;;;;;;;723.83;675.53;;;8.30;99.90;;;;;;4994593;28;20481;-79
2022/04/26 08:11:20;;;;;;;693.73;651.57;;;8.40;99.90;;;;;;4997722;28;20528;-79
2022/04/26 08:13:47;;;;;;;670.77;630.60;;;8.40;99.90;;;;;;4997146;28;20934;-79
2022/04/26 08:16:14;;;;;;;653.23;616.50;;;8.40;99.90;;;;;;4996518;28;21014;-79
2022/04/26 08:18:41;;;;;;;700.97;656.20;;;8.40;99.90;;;;;;4996431;28;20458;-79
2022/04/26 08:21:13;;;;;;;682.83;637.33;;;8.60;99.90;;;;;;4997523;28;20812;-79
2022/04/26 08:29:05;;;;;;;575.23;542.47;;;9.00;99.90;;;;;;4997053;28;20453;-79
2022/04/26 08:31:32;;;;;;;469.53;446.63;;;9.20;99.90;;;;;;4997139;28;20454;-79
2022/04/26 08:33:59;;;;;;;431.13;409.67;;;9.30;99.90;;;;;;4995846;28;20455;-79
2022/04/26 08:36:27;;;;;;;448.87;424.20;;;9.30;99.90;;;;;;4996957;28;20203;-79
2022/04/26 08:38:53;;;;;;;367.90;348.23;;;9.50;99.90;;;;;;4994670;28;20454;-79
2022/04/26 08:41:20;;;;;;;285.87;268.60;;;9.50;99.90;;;;;;4974875;28;20459;-79
2022/04/26 08:43:47;;;;;;;291.30;276.00;;;9.50;99.90;;;;;;4975584;28;20482;-79
2022/04/26 08:46:14;;;;;;;278.20;262.93;;;9.60;99.90;;;;;;4975602;28;20486;-79
2022/04/26 08:51:24;;;;;;;163.47;148.17;;;9.50;99.90;;;;;;4976317;28;20442;-79
2022/04/26 08:53:53;;;;;;;148.50;134.83;;;9.60;99.90;;;;;;4974950;28;20458;-80
2022/04/26 08:56:20;;;;;;;169.33;155.77;;;9.60;99.90;;;;;;4990520;23;20557;-79
2022/04/26 08:58:48;;;;;;;132.60;122.20;;;9.70;99.90;;;;;;4976084;28;20550;-79
2022/04/26 09:01:18;;;;;;;134.30;120.20;;;9.70;99.90;;;;;;4975815;28;20492;-79
2022/04/26 09:03:55;;;;;;;105.93;94.67;;;9.90;99.90;;;;;;4976626;28;20485;-79
2022/04/26 09:06:23;;;;;;;116.60;105.27;;;9.80;99.90;;;;;;4977383;28;20479;-79
2022/04/26 09:08:50;;;;;;;97.90;88.50;;;10.00;99.90;;;;;;4973776;28;20451;-79
2022/04/26 09:11:24;;;;;;;94.00;84.47;;;9.80;99.90;;;;;;4976347;28;20466;-79
2022/04/26 09:13:51;;;;;;;87.73;74.07;;;9.90;99.90;;;;;;4975069;28;20514;-80
2022/04/26 09:16:19;;;;;;;67.73;57.47;;;9.80;99.90;;;;;;4975165;28;20484;-79
2022/04/26 09:18:54;;;;;;;70.47;54.63;;;9.90;99.90;;;;;;4975804;28;20461;-79
2022/04/26 09:21:22;;;;;;;71.10;57.40;;;9.80;99.90;;;;;;4976453;28;20465;-81
2022/04/26 09:23:49;;;;;;;96.53;69.87;;;10.00;99.90;;;;;;4973987;28;20487;-81
2022/04/26 09:26:17;;;;;;;94.37;76.10;;;10.00;99.90;;;;;;4976963;28;20479;-79
2022/04/26 09:28:47;;;;;;;89.30;68.10;;;10.20;99.90;;;;;;4975575;28;20856;-80
2022/04/26 09:31:19;;;;;;;77.43;55.77;;;10.30;99.90;;;;;;4975113;28;20467;-81
2022/04/26 09:33:51;;;;;;;64.10;45.97;;;10.40;99.90;;;;;;4976796;28;20832;-79
2022/04/26 09:36:19;;;;;;;83.93;61.53;;;10.50;99.80;;;;;;4975044;28;20478;-83
2022/04/26 09:38:51;;;;;;;63.37;46.90;;;10.70;99.30;;;;;;4974891;28;20535;-79
2022/04/26 09:41:17;;;;;;;58.97;43.70;;;10.80;97.90;;;;;;4976664;28;20462;-79
2022/04/26 09:43:56;;;;;;;66.73;46.13;;;10.90;97.40;;;;;;4974682;28;20478;-79
2022/04/26 09:46:24;;;;;;;73.33;50.70;;;10.90;95.70;;;;;;4976429;28;20474;-79
2022/04/26 09:48:53;;;;;;;79.27;45.90;;;11.00;95.40;;;;;;4975845;28;20948;-79
2022/04/26 09:51:20;;;;;;;76.73;55.33;;;11.10;95.50;;;;;;4974563;28;20504;-79
2022/04/26 09:53:46;;;;;;;67.77;49.40;;;11.10;94.50;;;;;;4977041;28;20456;-80
2022/04/26 09:56:15;;;;;;;61.30;36.70;;;11.30;94.90;;;;;;4976551;28;20482;-82
2022/04/26 09:58:44;;;;;;;68.53;42.93;;;11.40;93.90;;;;;;4973661;28;20463;-79
2022/04/26 10:01:14;;;;;;;57.40;30.60;;;11.60;91.80;;;;;;4976969;28;20981;-79
2022/04/26 10:03:46;;;;;;;74.93;44.23;;;11.60;91.60;;;;;;4976774;28;20483;-82
2022/04/26 10:06:16;;;;;;;75.77;47.73;;;11.70;90.20;;;;;;4975218;28;20943;-79
2022/04/26 10:08:43;;;;;;;93.03;58.00;;;11.70;89.40;;;;;;4975900;28;20549;-79
2022/04/26 10:11:10;;;;;;;74.07;47.80;;;11.70;90.40;;;;;;4976728;28;20948;-79
2022/04/26 10:13:40;;;;;;;98.20;62.73;;;11.60;85.70;;;;;;4976655;28;20490;-79
2022/04/26 10:16:19;;;;;;;90.80;61.63;;;11.70;88.90;;;;;;4976820;28;20479;-80
2022/04/26 10:18:47;;;;;;;99.47;69.37;;;12.00;86.50;;;;;;4975490;28;20509;-79
2022/04/26 10:21:46;;;;;;;104.53;74.70;;;11.90;85.80;;;;;;4975602;28;20455;-79
2022/04/26 10:24:22;;;;;;;74.00;48.83;;;12.20;84.60;;;;;;4974819;28;20522;-81
2022/04/26 10:27:06;;;;;;;94.93;68.00;;;12.10;79.30;;;;;;4976196;28;20459;-79
2022/04/26 10:29:44;;;;;;;84.03;61.30;;;12.20;81.40;;;;;;4974715;28;20538;-79
2022/04/26 10:32:28;;;;;;;100.43;64.77;;;12.20;82.50;;;;;;4975597;28;20459;-79
2022/04/26 10:34:56;;;;;;;95.47;67.10;;;12.40;80.50;;;;;;4975875;28;20474;-79
2022/04/26 10:37:31;;;;;;;91.73;62.80;;;12.70;76.80;;;;;;4975307;28;20546;-79
2022/04/26 10:40:02;;;;;;;91.97;63.40;;;12.60;78.20;;;;;;4975755;28;20888;-82
2022/04/26 10:42:30;;;;;;;76.27;49.77;;;13.10;79.80;;;;;;4972685;28;20451;-79
2022/04/26 10:44:59;;;;;;;81.33;52.57;;;12.80;72.90;;;;;;4976249;28;20489;-80
2022/04/26 10:47:28;;;;;;;79.37;58.30;;;12.80;74.00;;;;;;4976443;28;20549;-80
2022/04/26 10:49:58;;;;;;;88.23;59.17;;;12.60;77.70;;;;;;4974966;28;20462;-79
2022/04/26 10:52:49;;;;;;;88.53;57.90;;;12.30;77.40;;;;;;4976159;28;20568;-79
2022/04/26 10:55:25;;;;;;;76.70;54.20;;;12.20;75.30;;;;;;4974722;28;20888;-80
2022/04/26 10:57:52;;;;;;;80.93;52.10;;;12.40;78.90;;;;;;4970482;28;20459;-79
2022/04/26 11:00:26;;;;;;;65.90;45.87;;;12.40;77.00;;;;;;4973488;28;20451;-81
2022/04/26 11:03:02;;;;;;;61.27;43.43;;;12.50;79.20;;;;;;4974457;28;20455;-79
2022/04/26 11:05:30;;;;;;;75.77;52.43;;;12.70;75.20;;;;;;4972159;28;20545;-79
2022/04/26 11:07:57;;;;;;;68.53;47.77;;;12.90;74.30;;;;;;4973920;28;20494;-79
2022/04/26 11:10:25;;;;;;;67.80;46.17;;;13.00;73.20;;;;;;4973602;28;20463;-81
2022/04/26 11:12:52;;;;;;;57.50;38.87;;;13.70;69.50;;;;;;4975063;28;20455;-84
2022/04/26 11:15:21;;;;;;;82.93;62.20;;;14.00;64.60;;;;;;4974561;28;20478;-80
2022/04/26 11:17:49;;;;;;;75.20;56.47;;;14.50;65.10;;;;;;4975098;28;20481;-78
2022/04/26 11:20:20;;;;;;;72.37;54.80;;;15.00;65.50;;;;;;4973016;28;20466;-80
2022/04/26 11:22:49;;;;;;;67.40;52.00;;;15.30;60.40;;;;;;4974861;28;20467;-81
2022/04/26 11:28:10;;;;;;;41.83;28.27;;;14.70;62.50;;;;;;4975219;28;20433;-82
2022/04/26 11:30:38;;;;;;;50.07;43.97;;;14.30;68.50;;;;;;4973648;28;20474;-82
2022/04/26 11:33:07;;;;;;;44.10;37.00;;;14.00;62.40;;;;;;4975102;28;20461;-82
2022/04/26 11:35:36;;;;;;;50.30;36.90;;;13.80;65.90;;;;;;4975184;28;20527;-80
2022/04/26 11:38:06;;;;;;;56.10;41.37;;;14.10;62.80;;;;;;4974374;28;20451;-81
2022/04/26 11:40:36;;;;;;;42.60;32.03;;;14.80;62.00;;;;;;4975362;28;20515;-80
2022/04/26 11:43:08;;;;;;;47.27;38.40;;;15.40;58.30;;;;;;4975643;28;21070;-80
2022/04/26 11:45:36;;;;;;;48.80;39.83;;;15.30;58.50;;;;;;4975921;28;20998;-80
2022/04/26 11:48:07;;;;;;;43.90;35.30;;;15.70;55.10;;;;;;4975242;28;20462;-81
2022/04/26 11:50:35;;;;;;;44.40;39.63;;;15.80;59.00;;;;;;4975618;28;20451;-81
2022/04/26 11:53:04;;;;;;;42.60;34.00;;;16.00;54.60;;;;;;4975752;28;20487;-83
2022/04/26 11:55:32;;;;;;;46.63;39.37;;;16.20;49.70;;;;;;4974855;28;20595;-81
2022/04/26 11:58:15;;;;;;;44.07;38.60;;;16.70;48.60;;;;;;4973958;28;20466;-81
2022/04/26 12:00:53;;;;;;;41.67;35.70;;;16.90;47.40;;;;;;4973953;28;20562;-81
2022/04/26 12:03:21;;;;;;;28.90;25.50;;;16.50;50.00;;;;;;4975415;28;20828;-81
2022/04/26 12:05:54;;;;;;;30.23;25.37;;;16.00;49.50;;;;;;4974235;28;20509;-81
2022/04/26 12:08:22;;;;;;;27.17;20.50;;;15.20;52.00;;;;;;4975457;28;20464;-81
2022/04/26 12:10:49;;;;;;;36.23;32.30;;;14.50;55.20;;;;;;4975544;28;20455;-80
2022/04/26 12:13:29;;;;;;;38.23;29.43;;;14.00;58.90;;;;;;4976343;28;20456;-81
2022/04/26 12:15:57;;;;;;;36.33;29.93;;;14.00;60.40;;;;;;4976489;28;20485;-80
2022/04/26 12:18:24;;;;;;;27.13;21.73;;;14.80;58.60;;;;;;4976053;28;20466;-81
2022/04/26 12:21:00;;;;;;;27.50;23.73;;;15.70;53.10;;;;;;4976661;28;20463;-81
2022/04/26 12:23:28;;;;;;;30.37;24.80;;;16.80;55.40;;;;;;4977587;28;20470;-81
2022/04/26 12:25:56;;;;;;;22.27;18.07;;;17.20;44.20;;;;;;4977094;28;20481;-81
2022/04/26 12:28:26;;;;;;;29.80;24.90;;;17.80;36.10;;;;;;4975953;28;20837;-80
2022/04/26 12:30:53;;;;;;;31.73;26.57;;;17.80;41.00;;;;;;4977763;28;20454;-81
2022/04/26 12:33:30;;;;;;;24.00;18.30;;;17.70;40.30;;;;;;4977136;28;20459;-81
2022/04/26 12:36:05;;;;;;;23.97;17.03;;;18.00;40.00;;;;;;4977565;28;20985;-81
2022/04/26 12:38:45;;;;;;;22.73;17.00;;;17.30;35.30;;;;;;4977060;28;20458;-81
2022/04/26 12:41:11;;;;;;;21.73;18.03;;;16.50;41.90;;;;;;4977329;28;20919;-81
2022/04/26 12:43:38;;;;;;;30.17;27.00;;;16.60;44.00;;;;;;4977261;28;20481;-81
2022/04/26 12:46:07;;;;;;;28.63;25.50;;;17.30;38.90;;;;;;4979162;28;20483;-81
2022/04/26 12:51:22;;;;;;;24.47;18.87;;;18.00;37.50;;;;;;4979122;28;20494;-82
2022/04/26 12:53:50;;;;;;;19.33;17.23;;;18.50;32.60;;;;;;4979966;28;20547;-83
2022/04/26 12:56:19;;;;;;;29.50;25.27;;;19.00;37.90;;;;;;4981164;28;20485;-81
2022/04/26 12:58:48;;;;;;;22.27;15.83;;;18.40;33.80;;;;;;4980022;28;20454;-81
2022/04/26 13:01:20;;;;;;;15.37;11.30;;;18.00;33.40;;;;;;4980966;28;20864;-81
2022/04/26 13:03:47;;;;;;;27.70;18.00;;;18.20;32.70;;;;;;4980581;28;20474;-81
2022/04/26 13:06:16;;;;;;;20.67;18.47;;;18.70;30.90;;;;;;4980550;28;20534;-81
2022/04/26 13:08:45;;;;;;;19.13;15.33;;;18.90;34.30;;;;;;4979539;28;20539;-81
2022/04/26 13:11:24;;;;;;;14.80;12.97;;;18.20;25.70;;;;;;4982629;28;20467;-81
2022/04/26 13:13:51;;;;;;;27.03;17.87;;;16.90;36.10;;;;;;4980991;28;20461;-81
2022/04/26 13:16:30;;;;;;;23.00;20.60;;;16.20;36.50;;;;;;4981034;28;20482;-81
2022/04/26 13:18:56;;;;;;;16.87;13.33;;;16.70;36.70;;;;;;4979779;28;20964;-81
2022/04/26 13:21:23;;;;;;;28.77;18.83;;;17.50;30.40;;;;;;4980031;28;20547;-81
2022/04/26 13:23:52;;;;;;;18.33;14.20;;;18.40;34.40;;;;;;4980292;28;20486;-81
2022/04/26 13:26:19;;;;;;;20.73;16.10;;;18.80;27.80;;;;;;4979299;28;20846;-83
2022/04/26 13:28:46;;;;;;;22.77;18.43;;;19.00;26.30;;;;;;4976319;28;20555;-81
2022/04/26 13:31:12;;;;;;;15.27;13.73;;;19.20;26.50;;;;;;4981676;28;20461;-82
2022/04/26 13:33:42;;;;;;;16.25;12.00;;;18.50;24.70;;;;;;4983449;28;20472;-82
2022/04/26 13:36:13;;;;;;;14.60;10.60;;;17.00;32.50;;;;;;4982454;28;20221;-81
2022/04/26 13:39:10;;;;;;;22.30;16.27;;;16.00;31.50;;;;;;4981840;28;20483;-81
2022/04/26 13:41:38;;;;;;;19.80;14.00;;;15.50;35.80;;;;;;4985682;28;20471;-81
2022/04/26 13:44:05;;;;;;;19.87;17.80;;;14.40;54.10;;;;;;4981848;28;20479;-80
2022/04/26 13:46:35;;;;;;;19.00;14.83;;;13.30;62.70;;;;;;4979671;28;20481;-83
2022/04/26 13:49:03;;;;;;;26.60;15.67;;;11.40;99.90;;;;;;4978981;28;20455;-82
2022/04/26 13:51:30;;;;;;;35.40;31.27;;;10.80;99.90;;;;;;4979712;28;20457;-82
2022/04/26 13:53:56;;;;;;;59.90;55.13;;;10.50;99.90;;;;;;4979193;28;20526;-84
2022/04/26 13:56:24;;;;;;;27.63;21.87;;;10.70;99.90;;;;;;4977149;28;20494;-82
2022/04/26 13:58:52;;;;;;;127.20;120.13;;;10.60;99.90;;;;;;4976766;28;20460;-81
2022/04/26 14:01:19;;;;;;;371.10;356.60;;;10.70;99.90;;;;;;4976151;28;20457;-81
2022/04/26 14:03:46;;;;;;;544.50;520.67;;;10.90;99.90;;;;;;4975929;28;20455;-81
2022/04/26 14:06:13;;;;;;;756.88;708.75;;;11.20;99.90;;;;;;4975795;28;20508;-83
2022/04/26 14:08:40;;;;;;;228.30;218.60;;;11.40;99.90;;;;;;4978080;28;20235;-81
2022/04/26 14:11:07;;;;;;;97.93;92.37;;;11.30;99.90;;;;;;4977057;28;20458;-84
2022/04/26 14:21:47;;;;;;;144.47;136.00;;;11.40;99.90;;;;;;4973927;28;20466;-81
2022/04/26 14:21:51;;;;;;;25.53;19.70;;;11.90;99.90;;;;;;4976365;28;20979;-81
2022/04/26 14:24:17;;;;;;;28.60;22.07;;;12.00;99.90;;;;;;4976890;28;20495;-80
2022/04/26 14:26:44;;;;;;;18.03;14.43;;;12.20;99.90;;;;;;4978012;28;20498;-80
2022/04/26 14:29:11;;;;;;;26.20;21.17;;;12.30;99.90;;;;;;4975918;28;20451;-80
2022/04/26 14:31:39;;;;;;;23.40;17.17;;;12.50;99.90;;;;;;4977275;28;20489;-80
2022/04/26 14:34:06;;;;;;;49.53;19.87;;;12.80;98.30;;;;;;4977170;28;20454;-79
2022/04/26 14:36:32;;;;;;;17.23;12.17;;;13.50;93.80;;;;;;4974672;28;20485;-81
2022/04/26 14:38:59;;;;;;;21.33;15.57;;;14.20;81.10;;;;;;4976374;28;20466;-80
2022/04/26 14:41:26;;;;;;;17.90;14.37;;;14.50;70.10;;;;;;4977077;28;20471;-80
2022/04/26 14:43:53;;;;;;;20.53;14.30;;;14.80;74.80;;;;;;4976010;28;20816;-81
2022/04/26 14:46:20;;;;;;;22.20;15.83;;;15.20;64.50;;;;;;4978668;28;20855;-81
2022/04/26 14:48:48;;;;;;;19.67;15.73;;;15.40;57.60;;;;;;4977511;28;20465;-82
2022/04/26 14:51:15;;;;;;;18.03;13.47;;;15.90;57.80;;;;;;4976415;28;20973;-82
2022/04/26 14:53:41;;;;;;;15.90;10.97;;;16.40;56.60;;;;;;4977407;28;20840;-81
2022/04/26 14:56:10;;;;;;;19.97;12.50;;;16.30;46.90;;;;;;4998069;23;20504;-80
2022/04/26 14:58:37;;;;;;;19.10;13.27;;;16.50;53.40;;;;;;4972600;28;20465;-79
2022/04/26 15:01:04;;;;;;;19.83;14.40;;;16.70;44.30;;;;;;4975687;28;20449;-80
2022/04/26 15:03:30;;;;;;;14.93;12.50;;;16.50;41.10;;;;;;4972744;28;20463;-80
2022/04/26 15:05:59;;;;;;;19.57;11.53;;;17.00;41.50;;;;;;4972480;28;20490;-80
2022/04/26 15:11:10;;;;;;;12.83;9.30;;;16.90;38.30;;;;;;4974724;28;20521;-79
2022/04/26 15:16:39;;;;;;;12.80;9.33;;;17.10;41.70;;;;;;4974833;28;20454;-79
2022/04/26 15:19:06;;;;;;;17.50;10.70;;;16.80;35.50;;;;;;4971999;28;20466;-79
2022/04/26 15:21:35;;;;;;;18.00;12.80;;;16.80;36.20;;;;;;4973699;28;20473;-79
2022/04/26 15:24:01;;;;;;;15.30;12.30;;;17.00;34.00;;;;;;4975138;28;20453;-79
2022/04/26 15:26:28;;;;;;;17.50;9.73;;;16.70;38.80;;;;;;4972358;28;20495;-79
2022/04/26 15:28:55;;;;;;;18.80;9.47;;;16.40;31.90;;;;;;4973671;28;20515;-79
2022/04/26 15:31:22;;;;;;;12.63;9.03;;;16.40;32.50;;;;;;4975215;28;20464;-79
2022/04/26 15:33:50;;;;;;;17.80;10.10;;;16.30;38.60;;;;;;4969957;28;20599;-79
2022/04/26 15:36:18;;;;;;;15.13;12.23;;;16.40;31.90;;;;;;4973524;28;21100;-80
2022/04/26 15:38:47;;;;;;;14.73;10.80;;;16.30;31.50;;;;;;4973036;28;20872;-78
2022/04/26 15:41:14;;;;;;;14.10;10.10;;;16.20;35.30;;;;;;4973468;28;20874;-78
2022/04/26 15:43:42;;;;;;;11.90;9.60;;;16.20;31.80;;;;;;4973070;28;20469;-78
2022/04/26 15:46:10;;;;;;;14.50;8.87;;;15.90;37.50;;;;;;4972656;28;21037;-79
2022/04/26 15:48:38;;;;;;;18.17;14.30;;;15.70;38.40;;;;;;4972576;28;20456;-78
2022/04/26 15:51:05;;;;;;;20.60;15.17;;;15.40;41.90;;;;;;4972461;28;20462;-80
2022/04/26 15:53:32;;;;;;;19.70;15.80;;;15.00;48.60;;;;;;4973347;28;20463;-81
2022/04/26 15:56:00;;;;;;;17.30;15.10;;;14.50;49.30;;;;;;4973266;28;20493;-81
2022/04/26 15:58:27;;;;;;;19.10;15.93;;;14.10;53.90;;;;;;4972840;28;20653;-80
2022/04/26 16:00:55;;;;;;;18.70;16.70;;;13.70;58.60;;;;;;4973687;28;20462;-80
2022/04/26 16:03:22;;;;;;;21.60;18.10;;;13.40;62.70;;;;;;4973164;28;20463;-80
2022/04/26 16:05:48;;;;;;;25.27;17.40;;;13.10;65.50;;;;;;4972337;28;20491;-80
2022/04/26 16:08:15;;;;;;;21.53;17.60;;;12.80;68.10;;;;;;4972591;28;20462;-81
2022/04/26 16:21:40;;;;;;;20.80;18.47;;;12.70;72.30;;;;;;4972560;28;20206;-80
2022/04/26 16:24:07;;;;;;;25.10;17.67;;;12.90;72.60;;;;;;4976735;28;20462;-80
2022/04/26 16:26:36;;;;;;;22.23;19.83;;;13.10;71.90;;;;;;4977918;28;20505;-80
2022/04/26 16:29:07;;;;;;;19.50;17.40;;;13.30;70.70;;;;;;4977874;28;21047;-82
2022/04/26 16:31:34;;;;;;;19.93;17.83;;;13.40;70.80;;;;;;4977135;28;20450;-81
2022/04/26 16:34:03;;;;;;;20.13;18.07;;;13.50;70.40;;;;;;4975450;28;20474;-81
2022/04/26 16:36:29;;;;;;;23.30;19.03;;;13.50;69.80;;;;;;4959104;29;20480;-80
2022/04/26 16:38:56;;;;;;;20.33;17.30;;;13.70;66.90;;;;;;4969387;28;20824;-83
2022/04/26 16:41:28;;;;;;;20.07;16.90;;;13.90;65.00;;;;;;4980196;28;20451;-83
2022/04/26 16:43:55;;;;;;;26.13;18.40;;;13.90;63.60;;;;;;4976489;28;20455;-82